createdAt,value
2019-03-17T00:00:01.545Z,7.9
2019-03-17T00:00:31.794Z,7.8
2019-03-17T00:01:02.039Z,7.8
2019-03-17T00:01:32.324Z,7.8
2019-03-17T00:02:02.777Z,7.8
2019-03-17T00:03:27.776Z,7.7
2019-03-17T00:04:32.846Z,7.7
2019-03-17T00:05:25.678Z,7.7
2019-03-17T00:06:24.918Z,7.7
2019-03-17T00:07:23.657Z,7.7
2019-03-17T00:08:22.983Z,7.7
2019-03-17T00:09:22.306Z,7.7
2019-03-17T00:10:21.288Z,7.7
2019-03-17T00:10:53.859Z,7.7
2019-03-17T00:11:22.079Z,7.7
2019-03-17T00:11:52.302Z,7.7
2019-03-17T00:12:22.524Z,7.6
2019-03-17T00:12:52.656Z,7.6
2019-03-17T00:13:23.185Z,7.6
2019-03-17T00:14:17.495Z,7.6
2019-03-17T00:15:16.719Z,7.6
2019-03-17T00:16:16.137Z,7.5
2019-03-17T00:17:14.847Z,7.5
2019-03-17T00:18:14.074Z,7.5
2019-03-17T00:19:13.194Z,7.5
2019-03-17T00:20:11.916Z,7.5
2019-03-17T00:21:11.324Z,7.4
2019-03-17T00:21:41.550Z,7.4
2019-03-17T00:22:11.788Z,7.4
2019-03-17T00:22:41.911Z,7.4
2019-03-17T00:23:12.631Z,7.4
2019-03-17T00:24:08.318Z,7.4
2019-03-17T00:25:11.415Z,7.4
2019-03-17T00:26:06.710Z,7.4
2019-03-17T00:27:06.031Z,7.4
2019-03-17T00:28:04.741Z,7.4
2019-03-17T00:29:03.857Z,7.4
2019-03-17T00:30:03.193Z,7.4
2019-03-17T00:31:02.111Z,7.4
2019-03-17T00:32:01.454Z,7.4
2019-03-17T00:33:00.361Z,7.4
2019-03-17T00:33:59.751Z,7.4
2019-03-17T00:34:58.561Z,7.3
2019-03-17T00:35:57.957Z,7.3
2019-03-17T00:36:56.782Z,7.3
2019-03-17T00:37:27.332Z,7.3
2019-03-17T00:37:58.058Z,7.3
2019-03-17T00:38:54.851Z,7.2
2019-03-17T00:39:54.080Z,7.2
2019-03-17T00:40:53.400Z,7.2
2019-03-17T00:41:52.114Z,7.2
2019-03-17T00:42:51.528Z,7.2
2019-03-17T00:43:50.362Z,7.2
2019-03-17T00:44:49.777Z,7.2
2019-03-17T00:45:48.492Z,7.1
2019-03-17T00:46:47.614Z,7.1
2019-03-17T00:47:18.244Z,7.1
2019-03-17T00:47:48.997Z,7.1
2019-03-17T00:48:19.231Z,7.1
2019-03-17T00:48:49.368Z,7.1
2019-03-17T00:49:45.187Z,7
2019-03-17T00:50:44.107Z,7
2019-03-17T00:51:42.927Z,7
2019-03-17T00:52:42.173Z,7
2019-03-17T00:53:41.510Z,6.9
2019-03-17T00:54:40.227Z,6.9
2019-03-17T00:55:39.527Z,6.9
2019-03-17T00:56:38.427Z,6.9
2019-03-17T00:57:08.670Z,6.9
2019-03-17T00:57:39.010Z,6.9
2019-03-17T00:58:09.466Z,6.9
2019-03-17T00:59:36.046Z,6.8
2019-03-17T01:00:34.853Z,6.8
2019-03-17T01:01:34.273Z,6.8
2019-03-17T01:02:33.089Z,6.8
2019-03-17T01:03:32.504Z,6.8
2019-03-17T01:04:31.415Z,6.8
2019-03-17T01:05:32.528Z,6.8
2019-03-17T01:06:29.433Z,6.8
2019-03-17T01:06:59.966Z,6.8
2019-03-17T01:07:30.591Z,6.8
2019-03-17T01:08:01.127Z,6.8
2019-03-17T01:08:31.762Z,6.8
2019-03-17T01:09:02.485Z,6.8
2019-03-17T01:10:25.950Z,6.8
2019-03-17T01:11:24.672Z,6.8
2019-03-17T01:12:23.895Z,6.8
2019-03-17T01:13:23.359Z,6.7
2019-03-17T01:14:22.076Z,6.7
2019-03-17T01:15:21.294Z,6.7
2019-03-17T01:16:20.016Z,6.7
2019-03-17T01:16:50.457Z,6.7
2019-03-17T01:17:21.186Z,6.7
2019-03-17T01:17:51.215Z,6.7
2019-03-17T01:18:21.663Z,6.7
2019-03-17T01:18:52.098Z,6.7
2019-03-17T01:19:22.739Z,6.7
2019-03-17T01:19:53.463Z,6.7
2019-03-17T01:21:15.432Z,6.6
2019-03-17T01:22:14.645Z,6.6
2019-03-17T01:23:13.972Z,6.6
2019-03-17T01:24:12.596Z,6.6
2019-03-17T01:25:11.820Z,6.6
2019-03-17T01:26:11.135Z,6.5
2019-03-17T01:26:41.762Z,6.5
2019-03-17T01:27:12.491Z,6.5
2019-03-17T01:27:42.527Z,6.5
2019-03-17T01:28:13.062Z,6.5
2019-03-17T01:28:43.614Z,6.5
2019-03-17T01:29:14.127Z,6.4
2019-03-17T01:29:44.753Z,6.4
2019-03-17T01:30:14.915Z,6.4
2019-03-17T01:30:45.646Z,6.4
2019-03-17T01:32:05.501Z,6.4
2019-03-17T01:33:04.319Z,6.3
2019-03-17T01:34:03.743Z,6.4
2019-03-17T01:35:11.232Z,6.4
2019-03-17T01:36:01.992Z,6.4
2019-03-17T01:36:32.617Z,6.4
2019-03-17T01:37:03.347Z,6.4
2019-03-17T01:37:33.470Z,6.4
2019-03-17T01:38:04.100Z,6.4
2019-03-17T01:38:34.825Z,6.4
2019-03-17T01:39:05.157Z,6.3
2019-03-17T01:39:35.787Z,6.3
2019-03-17T01:40:06.580Z,6.3
2019-03-17T01:40:36.697Z,6.3
2019-03-17T01:41:07.127Z,6.3
2019-03-17T01:41:37.845Z,6.3
2019-03-17T01:42:55.277Z,6.3
2019-03-17T01:43:54.585Z,6.3
2019-03-17T01:44:53.392Z,6.3
2019-03-17T01:46:51.739Z,6.3
2019-03-17T01:47:22.183Z,6.3
2019-03-17T01:47:52.808Z,6.2
2019-03-17T01:48:23.540Z,6.2
2019-03-17T01:48:53.780Z,6.3
2019-03-17T01:49:24.424Z,6.3
2019-03-17T01:49:54.642Z,6.3
2019-03-17T01:50:24.764Z,6.3
2019-03-17T01:50:55.398Z,6.3
2019-03-17T01:51:25.622Z,6.3
2019-03-17T01:52:46.077Z,6.3
2019-03-17T01:53:44.692Z,6.3
2019-03-17T01:54:44.180Z,6.3
2019-03-17T01:55:42.906Z,6.3
2019-03-17T01:56:42.223Z,6.4
2019-03-17T01:57:41.421Z,6.4
2019-03-17T01:58:11.943Z,6.4
2019-03-17T01:58:42.567Z,6.4
2019-03-17T01:59:13.213Z,6.4
2019-03-17T01:59:43.856Z,6.4
2019-03-17T02:00:14.528Z,6.4
2019-03-17T02:00:45.170Z,6.4
2019-03-17T02:01:15.399Z,6.4
2019-03-17T02:02:36.955Z,6.4
2019-03-17T02:03:35.757Z,6.5
2019-03-17T02:04:35.070Z,6.5
2019-03-17T02:05:33.892Z,6.5
2019-03-17T02:06:33.308Z,6.5
2019-03-17T02:07:32.274Z,6.5
2019-03-17T02:08:31.176Z,6.5
2019-03-17T02:09:01.714Z,6.5
2019-03-17T02:09:32.365Z,6.5
2019-03-17T02:10:02.888Z,6.5
2019-03-17T02:10:33.426Z,6.5
2019-03-17T02:11:04.153Z,6.5
2019-03-17T02:12:27.598Z,6.5
2019-03-17T02:13:26.316Z,6.5
2019-03-17T02:14:25.625Z,6.6
2019-03-17T02:15:24.435Z,6.5
2019-03-17T02:16:23.758Z,6.5
2019-03-17T02:17:22.661Z,6.5
2019-03-17T02:18:21.788Z,6.5
2019-03-17T02:19:21.007Z,6.5
2019-03-17T02:19:51.634Z,6.5
2019-03-17T02:20:22.067Z,6.6
2019-03-17T02:20:52.598Z,6.6
2019-03-17T02:22:18.263Z,6.7
2019-03-17T02:23:17.091Z,6.7
2019-03-17T02:25:15.196Z,6.8
2019-03-17T02:26:14.649Z,6.9
2019-03-17T02:27:13.498Z,6.9
2019-03-17T02:28:12.820Z,7
2019-03-17T02:29:11.699Z,7
2019-03-17T02:30:10.722Z,7.1
2019-03-17T02:30:40.865Z,7.1
2019-03-17T02:31:11.021Z,7.1
2019-03-17T02:32:08.982Z,7.1
2019-03-17T02:33:08.032Z,7.1
2019-03-17T02:34:06.882Z,7.1
2019-03-17T02:35:06.107Z,7.1
2019-03-17T02:36:05.059Z,7.2
2019-03-17T02:37:04.433Z,7.2
2019-03-17T02:38:03.250Z,7.2
2019-03-17T02:39:02.612Z,7.3
2019-03-17T02:40:01.810Z,7.3
2019-03-17T02:40:31.924Z,7.3
2019-03-17T02:41:02.668Z,7.3
2019-03-17T02:41:32.918Z,7.3
2019-03-17T02:42:03.387Z,7.4
2019-03-17T02:42:58.622Z,7.4
2019-03-17T02:43:58.092Z,7.4
2019-03-17T02:44:56.914Z,7.4
2019-03-17T02:45:55.853Z,7.3
2019-03-17T02:46:55.274Z,7.3
2019-03-17T02:47:54.154Z,7.3
2019-03-17T02:48:53.113Z,7.3
2019-03-17T02:49:52.347Z,7.3
2019-03-17T02:50:51.182Z,7.2
2019-03-17T02:51:50.542Z,7.2
2019-03-17T02:52:49.533Z,7.3
2019-03-17T02:53:48.453Z,7.3
2019-03-17T02:54:47.677Z,7.3
2019-03-17T02:55:46.610Z,7.3
2019-03-17T02:56:16.645Z,7.3
2019-03-17T02:56:47.178Z,7.2
2019-03-17T02:57:17.826Z,7.2
2019-03-17T02:57:48.467Z,7.3
2019-03-17T02:58:44.296Z,7.2
2019-03-17T02:59:43.067Z,7.2
2019-03-17T03:00:41.990Z,7.2
2019-03-17T03:01:41.260Z,7.2
2019-03-17T03:02:40.186Z,7.2
2019-03-17T03:03:39.526Z,7.2
2019-03-17T03:04:38.350Z,7.1
2019-03-17T03:05:56.132Z,7.1
2019-03-17T03:06:08.258Z,7.1
2019-03-17T03:06:38.494Z,7.1
2019-03-17T03:07:08.631Z,7.1
2019-03-17T03:08:34.665Z,7.1
2019-03-17T03:09:34.096Z,7.1
2019-03-17T03:10:33.590Z,7.1
2019-03-17T03:11:31.822Z,7.1
2019-03-17T03:12:31.151Z,7.1
2019-03-17T03:13:29.978Z,7
2019-03-17T03:14:29.410Z,7
2019-03-17T03:15:28.043Z,7
2019-03-17T03:15:58.533Z,7
2019-03-17T03:16:29.203Z,7
2019-03-17T03:16:59.869Z,7
2019-03-17T03:17:30.440Z,7
2019-03-17T03:18:01.199Z,7
2019-03-17T03:19:24.594Z,7
2019-03-17T03:20:23.318Z,7
2019-03-17T03:21:22.745Z,7
2019-03-17T03:22:22.172Z,7
2019-03-17T03:23:21.009Z,6.9
2019-03-17T03:24:19.837Z,6.9
2019-03-17T03:25:19.090Z,6.9
2019-03-17T03:25:49.725Z,6.9
2019-03-17T03:26:20.487Z,6.9
2019-03-17T03:26:50.724Z,6.9
2019-03-17T03:27:20.897Z,6.9
2019-03-17T03:27:51.659Z,6.9
2019-03-17T03:28:21.818Z,6.9
2019-03-17T03:28:52.643Z,6.9
2019-03-17T03:30:14.934Z,6.9
2019-03-17T03:31:13.904Z,6.9
2019-03-17T03:32:12.764Z,6.9
2019-03-17T03:33:11.573Z,6.9
2019-03-17T03:34:10.868Z,6.9
2019-03-17T03:35:10.048Z,6.9
2019-03-17T03:35:40.240Z,6.9
2019-03-17T03:36:13.264Z,6.9
2019-03-17T03:36:41.426Z,6.9
2019-03-17T03:37:12.176Z,6.9
2019-03-17T03:37:42.401Z,6.9
2019-03-17T03:38:12.724Z,6.9
2019-03-17T03:38:42.899Z,6.9
2019-03-17T03:39:13.828Z,6.8
2019-03-17T03:39:43.988Z,6.8
2019-03-17T03:41:04.314Z,6.8
2019-03-17T03:42:03.758Z,6.8
2019-03-17T03:43:02.522Z,6.8
2019-03-17T03:44:01.455Z,6.8
2019-03-17T03:45:01.134Z,6.8
2019-03-17T03:45:31.389Z,6.8
2019-03-17T03:46:01.549Z,6.8
2019-03-17T03:46:32.276Z,6.8
2019-03-17T03:47:02.524Z,6.8
2019-03-17T03:47:32.820Z,6.8
2019-03-17T03:48:02.994Z,6.8
2019-03-17T03:48:33.749Z,6.8
2019-03-17T03:49:04.300Z,6.8
2019-03-17T03:49:34.958Z,6.8
2019-03-17T03:50:55.054Z,6.8
2019-03-17T03:51:54.409Z,6.8
2019-03-17T03:52:53.248Z,6.8
2019-03-17T03:53:52.191Z,6.8
2019-03-17T03:54:51.528Z,6.8
2019-03-17T03:55:50.478Z,6.8
2019-03-17T03:56:20.552Z,6.8
2019-03-17T03:56:51.301Z,6.8
2019-03-17T03:57:21.364Z,6.8
2019-03-17T03:57:52.014Z,6.8
2019-03-17T03:58:22.584Z,6.8
2019-03-17T03:58:53.157Z,6.8
2019-03-17T03:59:23.850Z,6.8
2019-03-17T04:00:45.756Z,6.8
2019-03-17T04:01:45.124Z,6.8
2019-03-17T04:02:44.059Z,6.8
2019-03-17T04:03:42.949Z,6.8
2019-03-17T04:04:42.319Z,6.8
2019-03-17T04:05:41.072Z,6.8
2019-03-17T04:06:40.419Z,6.8
2019-03-17T04:07:10.775Z,6.8
2019-03-17T04:07:40.973Z,6.8
2019-03-17T04:08:11.761Z,6.8
2019-03-17T04:08:41.923Z,6.8
2019-03-17T04:09:12.667Z,6.8
2019-03-17T04:10:36.770Z,6.8
2019-03-17T04:11:35.630Z,6.8
2019-03-17T04:12:34.970Z,6.8
2019-03-17T04:13:33.840Z,6.8
2019-03-17T04:14:33.233Z,6.8
2019-03-17T04:15:31.872Z,6.8
2019-03-17T04:16:31.219Z,6.7
2019-03-17T04:17:01.982Z,6.7
2019-03-17T04:17:32.225Z,6.7
2019-03-17T04:18:02.487Z,6.7
2019-03-17T04:18:32.660Z,6.7
2019-03-17T04:19:03.225Z,6.7
2019-03-17T04:19:33.986Z,6.7
2019-03-17T04:20:04.255Z,6.7
2019-03-17T04:21:26.343Z,6.7
2019-03-17T04:22:25.799Z,6.7
2019-03-17T04:23:24.651Z,6.7
2019-03-17T04:24:23.396Z,6.7
2019-03-17T04:25:22.649Z,6.7
2019-03-17T04:26:22.075Z,6.7
2019-03-17T04:27:20.917Z,6.7
2019-03-17T04:27:51.473Z,6.7
2019-03-17T04:28:22.047Z,6.7
2019-03-17T04:28:52.629Z,6.7
2019-03-17T04:29:23.282Z,6.7
2019-03-17T04:29:54.088Z,6.7
2019-03-17T04:31:16.997Z,6.6
2019-03-17T04:32:16.435Z,6.6
2019-03-17T04:33:15.168Z,6.6
2019-03-17T04:34:14.502Z,6.6
2019-03-17T04:35:13.244Z,6.6
2019-03-17T04:36:12.670Z,6.5
2019-03-17T04:37:11.509Z,6.5
2019-03-17T04:38:10.953Z,6.5
2019-03-17T04:38:44.958Z,6.5
2019-03-17T04:39:11.603Z,6.5
2019-03-17T04:39:42.265Z,6.5
2019-03-17T04:40:12.914Z,6.5
2019-03-17T04:40:43.143Z,6.5
2019-03-17T04:41:13.277Z,6.5
2019-03-17T04:42:07.062Z,6.5
2019-03-17T04:43:05.949Z,6.5
2019-03-17T04:44:05.431Z,6.5
2019-03-17T04:45:04.285Z,6.4
2019-03-17T04:46:03.221Z,6.5
2019-03-17T04:47:02.053Z,6.4
2019-03-17T04:48:01.310Z,6.4
2019-03-17T04:49:01.566Z,6.4
2019-03-17T04:49:31.204Z,6.4
2019-03-17T04:50:01.762Z,6.4
2019-03-17T04:50:58.675Z,6.4
2019-03-17T04:51:57.512Z,6.4
2019-03-17T04:52:56.559Z,6.4
2019-03-17T04:53:55.982Z,6.4
2019-03-17T04:54:26.037Z,6.4
2019-03-17T04:54:56.696Z,6.4
2019-03-17T04:55:54.018Z,6.4
2019-03-17T04:56:52.843Z,6.4
2019-03-17T04:57:52.066Z,6.4
2019-03-17T04:58:50.795Z,6.4
2019-03-17T04:59:50.045Z,6.4
2019-03-17T05:00:49.437Z,6.4
2019-03-17T05:01:48.258Z,6.4
2019-03-17T05:02:47.583Z,6.5
2019-03-17T05:03:46.415Z,6.5
2019-03-17T05:04:17.187Z,6.5
2019-03-17T05:04:47.330Z,6.5
2019-03-17T05:05:18.050Z,6.5
2019-03-17T05:05:48.297Z,6.6
2019-03-17T05:06:54.144Z,6.6
2019-03-17T05:07:13.518Z,6.6
2019-03-17T05:07:44.186Z,6.6
2019-03-17T05:08:42.017Z,6.6
2019-03-17T05:09:40.757Z,6.6
2019-03-17T05:10:40.102Z,6.7
2019-03-17T05:11:38.550Z,6.7
2019-03-17T05:12:37.990Z,6.7
2019-03-17T05:13:37.362Z,6.7
2019-03-17T05:14:36.280Z,6.7
2019-03-17T05:15:06.414Z,6.7
2019-03-17T05:16:36.946Z,6.8
2019-03-17T05:17:33.666Z,6.8
2019-03-17T05:18:32.390Z,6.8
2019-03-17T05:19:31.505Z,6.8
2019-03-17T05:20:30.935Z,6.8
2019-03-17T05:21:29.567Z,6.8
2019-03-17T05:22:28.795Z,6.8
2019-03-17T05:23:28.021Z,6.9
2019-03-17T05:24:26.661Z,6.8
2019-03-17T05:24:57.199Z,6.8
2019-03-17T05:25:27.840Z,6.9
2019-03-17T05:25:58.086Z,6.9
2019-03-17T05:27:24.000Z,6.9
2019-03-17T05:28:24.439Z,6.9
2019-03-17T05:29:22.258Z,6.9
2019-03-17T05:30:21.485Z,6.9
2019-03-17T05:31:20.237Z,6.9
2019-03-17T05:32:19.636Z,6.9
2019-03-17T05:33:18.277Z,6.9
2019-03-17T05:34:17.515Z,6.9
2019-03-17T05:34:48.265Z,6.9
2019-03-17T05:35:18.348Z,6.9
2019-03-17T05:35:49.087Z,6.9
2019-03-17T05:36:19.320Z,6.9
2019-03-17T05:36:49.491Z,6.9
2019-03-17T05:38:13.881Z,6.9
2019-03-17T05:39:13.318Z,6.9
2019-03-17T05:40:12.062Z,6.9
2019-03-17T05:41:11.382Z,6.9
2019-03-17T05:42:10.213Z,6.9
2019-03-17T05:43:09.050Z,6.9
2019-03-17T05:45:07.665Z,6.9
2019-03-17T05:45:38.474Z,6.9
2019-03-17T05:46:08.629Z,6.9
2019-03-17T05:46:39.361Z,6.9
2019-03-17T05:47:09.506Z,6.9
2019-03-17T05:47:39.757Z,6.9
2019-03-17T05:49:03.876Z,6.9
2019-03-17T05:50:02.812Z,6.9
2019-03-17T05:51:01.533Z,6.9
2019-03-17T05:52:00.877Z,6.9
2019-03-17T05:53:00.018Z,7
2019-03-17T05:53:58.943Z,6.9
2019-03-17T05:54:29.078Z,6.9
2019-03-17T05:54:59.817Z,7
2019-03-17T05:55:30.362Z,7
2019-03-17T05:56:00.915Z,7
2019-03-17T05:56:31.451Z,7
2019-03-17T05:57:02.088Z,7
2019-03-17T05:57:32.723Z,7
2019-03-17T05:58:03.495Z,7
2019-03-17T05:58:33.627Z,7
2019-03-17T05:59:53.494Z,7
2019-03-17T06:00:52.921Z,7.1
2019-03-17T06:01:51.654Z,7.1
2019-03-17T06:02:50.883Z,7.1
2019-03-17T06:03:49.718Z,7.1
2019-03-17T06:04:20.076Z,7.1
2019-03-17T06:04:50.525Z,7.1
2019-03-17T06:05:20.863Z,7.1
2019-03-17T06:05:51.516Z,7.1
2019-03-17T06:06:21.585Z,7.1
2019-03-17T06:06:52.302Z,7.1
2019-03-17T06:07:22.942Z,7.1
2019-03-17T06:07:53.076Z,7.1
2019-03-17T06:08:23.724Z,7.1
2019-03-17T06:09:44.188Z,7.1
2019-03-17T06:10:43.417Z,7.2
2019-03-17T06:11:42.226Z,7.2
2019-03-17T06:12:41.469Z,7.1
2019-03-17T06:13:40.602Z,7.1
2019-03-17T06:14:39.433Z,7.1
2019-03-17T06:15:10.087Z,7.1
2019-03-17T06:15:40.732Z,7.1
2019-03-17T06:16:10.769Z,7.1
2019-03-17T06:16:41.435Z,7.1
2019-03-17T06:17:12.178Z,7.1
2019-03-17T06:17:42.143Z,7.1
2019-03-17T06:18:12.591Z,7.1
2019-03-17T06:19:35.084Z,7.2
2019-03-17T06:20:33.860Z,7.2
2019-03-17T06:21:33.078Z,7.2
2019-03-17T06:22:32.504Z,7.3
2019-03-17T06:23:31.232Z,7.3
2019-03-17T06:24:30.560Z,7.3
2019-03-17T06:25:29.457Z,7.3
2019-03-17T06:25:59.729Z,7.3
2019-03-17T06:26:29.864Z,7.4
2019-03-17T06:27:00.533Z,7.4
2019-03-17T06:27:30.679Z,7.4
2019-03-17T06:28:01.431Z,7.4
2019-03-17T06:29:25.635Z,7.5
2019-03-17T06:30:24.804Z,7.5
2019-03-17T06:31:24.140Z,7.5
2019-03-17T06:32:22.997Z,7.5
2019-03-17T06:33:21.641Z,7.4
2019-03-17T06:34:20.925Z,7.4
2019-03-17T06:35:20.260Z,7.4
2019-03-17T06:36:19.495Z,7.5
2019-03-17T06:36:49.939Z,7.5
2019-03-17T06:37:32.421Z,7.5
2019-03-17T06:37:50.980Z,7.5
2019-03-17T06:39:16.286Z,7.6
2019-03-17T06:40:15.713Z,7.6
2019-03-17T06:42:14.014Z,7.6
2019-03-17T06:43:12.838Z,7.7
2019-03-17T06:44:12.177Z,7.7
2019-03-17T06:45:10.999Z,7.8
2019-03-17T06:46:09.927Z,7.8
2019-03-17T06:47:09.354Z,7.9
2019-03-17T06:47:39.512Z,7.9
2019-03-17T06:49:07.332Z,8
2019-03-17T06:50:05.964Z,8.1
2019-03-17T06:51:05.293Z,8.1
2019-03-17T06:52:04.659Z,8.2
2019-03-17T06:53:03.404Z,8.2
2019-03-17T06:54:02.638Z,8.3
2019-03-17T06:56:00.853Z,8.3
2019-03-17T06:57:00.185Z,8.4
2019-03-17T06:57:59.122Z,8.4
2019-03-17T06:58:29.153Z,8.4
2019-03-17T06:58:59.894Z,8.5
2019-03-17T06:59:57.024Z,8.5
2019-03-17T07:00:56.446Z,8.6
2019-03-17T07:01:55.173Z,8.6
2019-03-17T07:02:54.318Z,8.7
2019-03-17T07:03:24.958Z,8.7
2019-03-17T07:03:55.603Z,8.7
2019-03-17T07:04:55.365Z,8.8
2019-03-17T07:05:51.480Z,8.8
2019-03-17T07:06:50.706Z,8.8
2019-03-17T07:08:48.923Z,8.8
2019-03-17T07:09:48.250Z,8.8
2019-03-17T07:10:46.901Z,8.8
2019-03-17T07:11:46.240Z,8.9
2019-03-17T07:12:45.591Z,8.9
2019-03-17T07:13:16.131Z,8.9
2019-03-17T07:14:43.541Z,9
2019-03-17T07:15:42.770Z,9
2019-03-17T07:16:41.593Z,9
2019-03-17T07:17:40.820Z,9.1
2019-03-17T07:18:40.137Z,9.1
2019-03-17T07:19:39.028Z,9.1
2019-03-17T07:20:38.447Z,9.1
2019-03-17T07:21:37.165Z,9.2
2019-03-17T07:22:36.391Z,9.3
2019-03-17T07:23:07.038Z,9.3
2019-03-17T07:23:37.768Z,9.3
2019-03-17T07:24:08.049Z,9.3
2019-03-17T07:25:33.513Z,9.3
2019-03-17T07:26:32.643Z,9.4
2019-03-17T07:27:31.967Z,9.4
2019-03-17T07:28:30.702Z,9.4
2019-03-17T07:29:29.948Z,9.5
2019-03-17T07:30:29.284Z,9.6
2019-03-17T07:31:28.116Z,9.6
2019-03-17T07:32:27.350Z,9.7
2019-03-17T07:32:57.724Z,9.7
2019-03-17T07:33:28.483Z,9.7
2019-03-17T07:33:58.623Z,9.7
2019-03-17T07:34:29.264Z,9.7
2019-03-17T07:34:59.987Z,9.7
2019-03-17T07:36:23.904Z,9.7
2019-03-17T07:37:22.735Z,9.8
2019-03-17T07:38:22.046Z,9.8
2019-03-17T07:39:21.272Z,9.8
2019-03-17T07:40:19.905Z,9.8
2019-03-17T07:41:19.257Z,9.8
2019-03-17T07:42:18.682Z,9.8
2019-03-17T07:42:48.817Z,9.8
2019-03-17T07:43:19.479Z,9.8
2019-03-17T07:43:50.040Z,9.8
2019-03-17T07:44:20.609Z,9.9
2019-03-17T07:44:51.247Z,9.9
2019-03-17T07:45:21.890Z,9.9
2019-03-17T07:45:52.443Z,9.9
2019-03-17T07:47:14.012Z,10
2019-03-17T07:48:12.948Z,10
2019-03-17T07:49:12.273Z,10
2019-03-17T07:50:11.507Z,10
2019-03-17T07:51:10.327Z,10
2019-03-17T07:52:09.611Z,10
2019-03-17T07:53:08.536Z,10.1
2019-03-17T07:53:39.074Z,10.1
2019-03-17T07:54:09.609Z,10.1
2019-03-17T07:54:40.065Z,10.1
2019-03-17T07:55:10.616Z,10.1
2019-03-17T07:55:41.261Z,10.1
2019-03-17T07:56:11.494Z,10.1
2019-03-17T07:56:41.801Z,10.1
2019-03-17T07:58:04.355Z,10.1
2019-03-17T07:59:03.082Z,10.2
2019-03-17T08:00:02.259Z,10.2
2019-03-17T08:01:02.461Z,10.2
2019-03-17T08:02:00.909Z,10.3
2019-03-17T08:02:59.747Z,10.3
2019-03-17T08:03:30.500Z,10.3
2019-03-17T08:04:01.043Z,10.3
2019-03-17T08:04:47.038Z,10.3
2019-03-17T08:05:02.095Z,10.3
2019-03-17T08:05:32.642Z,10.3
2019-03-17T08:06:03.447Z,10.4
2019-03-17T08:06:33.694Z,10.4
2019-03-17T08:07:03.926Z,10.4
2019-03-17T08:07:33.984Z,10.4
2019-03-17T08:08:54.391Z,10.5
2019-03-17T08:09:53.718Z,10.5
2019-03-17T08:10:52.636Z,10.5
2019-03-17T08:11:51.863Z,10.5
2019-03-17T08:12:50.986Z,10.6
2019-03-17T08:13:21.730Z,10.6
2019-03-17T08:13:51.860Z,10.6
2019-03-17T08:14:22.599Z,10.6
2019-03-17T08:14:52.761Z,10.7
2019-03-17T08:15:23.403Z,10.7
2019-03-17T08:15:53.847Z,10.7
2019-03-17T08:16:24.293Z,10.7
2019-03-17T08:16:54.840Z,10.7
2019-03-17T08:17:25.646Z,10.7
2019-03-17T08:18:45.533Z,10.7
2019-03-17T08:19:44.754Z,10.7
2019-03-17T08:20:44.261Z,10.8
2019-03-17T08:21:44.453Z,10.9
2019-03-17T08:22:42.280Z,10.9
2019-03-17T08:23:41.415Z,10.9
2019-03-17T08:24:12.064Z,10.9
2019-03-17T08:25:39.379Z,10.9
2019-03-17T08:26:10.114Z,10.9
2019-03-17T08:26:40.244Z,10.9
2019-03-17T08:27:10.907Z,10.9
2019-03-17T08:28:36.904Z,11
2019-03-17T08:29:36.143Z,11
2019-03-17T08:30:35.464Z,11
2019-03-17T08:31:34.809Z,11
2019-03-17T08:32:33.734Z,11
2019-03-17T08:33:32.599Z,11.1
2019-03-17T08:34:31.834Z,11.1
2019-03-17T08:35:02.315Z,11.1
2019-03-17T08:35:32.946Z,11.1
2019-03-17T08:36:03.586Z,11.1
2019-03-17T08:36:34.134Z,11.1
2019-03-17T08:37:04.879Z,11.1
2019-03-17T08:38:28.265Z,11.2
2019-03-17T08:39:27.494Z,11.2
2019-03-17T08:40:26.831Z,11.2
2019-03-17T08:41:25.663Z,11.2
2019-03-17T08:42:24.916Z,11.3
2019-03-17T08:43:24.241Z,11.3
2019-03-17T08:44:23.070Z,11.4
2019-03-17T08:45:22.498Z,11.4
2019-03-17T08:45:52.538Z,11.4
2019-03-17T08:46:23.267Z,11.5
2019-03-17T08:46:53.503Z,11.5
2019-03-17T08:47:23.951Z,11.5
2019-03-17T08:47:59.825Z,11.5
2019-03-17T08:48:24.836Z,11.5
2019-03-17T08:48:55.379Z,11.5
2019-03-17T08:49:26.040Z,11.5
2019-03-17T08:50:18.134Z,11.6
2019-03-17T08:51:17.688Z,11.6
2019-03-17T08:52:16.733Z,11.7
2019-03-17T08:53:15.571Z,11.8
2019-03-17T08:54:14.997Z,11.8
2019-03-17T08:55:13.860Z,11.9
2019-03-17T08:56:13.110Z,11.9
2019-03-17T08:56:43.564Z,11.9
2019-03-17T08:57:14.222Z,11.9
2019-03-17T08:57:44.791Z,11.9
2019-03-17T08:58:15.449Z,11.9
2019-03-17T08:58:46.170Z,11.9
2019-03-17T08:59:16.315Z,12
2019-03-17T09:00:09.604Z,12
2019-03-17T09:01:08.834Z,12
2019-03-17T09:02:07.661Z,12.1
2019-03-17T09:03:06.802Z,12.1
2019-03-17T09:04:06.228Z,12.1
2019-03-17T09:05:05.452Z,12.2
2019-03-17T09:06:04.703Z,12.2
2019-03-17T09:07:03.629Z,12.2
2019-03-17T09:07:34.080Z,12.2
2019-03-17T09:08:04.648Z,12.2
2019-03-17T09:09:02.083Z,12.2
2019-03-17T09:10:01.502Z,12.2
2019-03-17T09:11:00.333Z,12.2
2019-03-17T09:11:59.776Z,12.1
2019-03-17T09:12:58.605Z,12.1
2019-03-17T09:13:57.933Z,12.1
2019-03-17T09:14:56.760Z,12
2019-03-17T09:15:56.099Z,12
2019-03-17T09:16:55.434Z,12
2019-03-17T09:17:54.170Z,12
2019-03-17T09:18:53.615Z,12.1
2019-03-17T09:19:52.948Z,12.1
2019-03-17T09:20:51.776Z,12.2
2019-03-17T09:21:50.813Z,12.3
2019-03-17T09:22:50.263Z,12.4
2019-03-17T09:23:20.823Z,12.4
2019-03-17T09:23:51.567Z,12.5
2019-03-17T09:24:48.385Z,12.5
2019-03-17T09:25:47.716Z,12.5
2019-03-17T09:26:47.058Z,12.6
2019-03-17T09:27:45.934Z,12.6
2019-03-17T09:28:45.270Z,12.6
2019-03-17T09:29:44.422Z,12.6
2019-03-17T09:30:43.809Z,12.6
2019-03-17T09:31:42.640Z,12.6
2019-03-17T09:32:41.678Z,12.6
2019-03-17T09:33:12.216Z,12.6
2019-03-17T09:33:42.960Z,12.7
2019-03-17T09:34:13.415Z,12.7
2019-03-17T09:34:44.154Z,12.7
2019-03-17T09:35:14.292Z,12.7
2019-03-17T09:35:45.036Z,12.7
2019-03-17T09:36:38.723Z,12.7
2019-03-17T09:37:38.185Z,12.6
2019-03-17T09:38:48.717Z,12.6
2019-03-17T09:39:35.962Z,12.6
2019-03-17T09:40:35.381Z,12.6
2019-03-17T09:41:34.806Z,12.6
2019-03-17T09:42:33.536Z,12.7
2019-03-17T09:43:03.996Z,12.7
2019-03-17T09:43:34.737Z,12.7
2019-03-17T09:44:04.970Z,12.7
2019-03-17T09:44:35.313Z,12.7
2019-03-17T09:45:05.756Z,12.7
2019-03-17T09:46:30.201Z,12.6
2019-03-17T09:47:29.623Z,12.6
2019-03-17T09:48:28.951Z,12.6
2019-03-17T09:49:27.690Z,12.7
2019-03-17T09:50:27.017Z,12.8
2019-03-17T09:51:26.457Z,12.9
2019-03-17T09:53:24.764Z,12.9
2019-03-17T09:53:54.902Z,12.9
2019-03-17T09:54:25.557Z,13
2019-03-17T09:54:55.512Z,13
2019-03-17T09:55:25.965Z,13
2019-03-17T09:55:56.724Z,13
2019-03-17T09:57:21.307Z,13.1
2019-03-17T09:58:20.446Z,13.1
2019-03-17T09:59:19.661Z,13
2019-03-17T10:00:18.703Z,13
2019-03-17T10:01:17.943Z,13
2019-03-17T10:02:17.178Z,13.1
2019-03-17T10:02:47.622Z,13.1
2019-03-17T10:03:18.274Z,13.1
2019-03-17T10:03:48.721Z,13.1
2019-03-17T10:04:19.459Z,13.2
2019-03-17T10:04:49.627Z,13.2
2019-03-17T10:05:20.188Z,13.1
2019-03-17T10:05:50.889Z,13.1
2019-03-17T10:06:20.993Z,13.1
2019-03-17T10:06:51.547Z,13.1
2019-03-17T10:08:12.532Z,13.3
2019-03-17T10:09:11.167Z,13.4
2019-03-17T10:10:10.994Z,13.5
2019-03-17T10:11:11.910Z,13.6
2019-03-17T10:12:09.233Z,13.5
2019-03-17T10:13:08.461Z,13.5
2019-03-17T10:13:39.099Z,13.5
2019-03-17T10:14:09.332Z,13.6
2019-03-17T10:14:39.379Z,13.6
2019-03-17T10:15:09.924Z,13.5
2019-03-17T10:15:40.665Z,13.5
2019-03-17T10:16:10.906Z,13.5
2019-03-17T10:16:41.251Z,13.5
2019-03-17T10:17:11.318Z,13.4
2019-03-17T10:17:41.962Z,13.4
2019-03-17T10:19:03.330Z,13.3
2019-03-17T10:20:02.582Z,13.2
2019-03-17T10:21:01.908Z,13.2
2019-03-17T10:22:01.158Z,13.3
2019-03-17T10:23:00.391Z,13.4
2019-03-17T10:23:30.948Z,13.4
2019-03-17T10:24:01.485Z,13.4
2019-03-17T10:24:32.117Z,13.4
2019-03-17T10:25:02.557Z,13.4
2019-03-17T10:25:33.195Z,13.4
2019-03-17T10:26:03.428Z,13.5
2019-03-17T10:26:33.971Z,13.5
2019-03-17T10:27:04.709Z,13.5
2019-03-17T10:27:34.841Z,13.5
2019-03-17T10:28:55.319Z,13.4
2019-03-17T10:29:54.552Z,13.4
2019-03-17T10:30:53.893Z,13.4
2019-03-17T10:31:53.318Z,13.3
2019-03-17T10:32:51.953Z,13.3
2019-03-17T10:33:51.093Z,13.3
2019-03-17T10:34:21.664Z,13.3
2019-03-17T10:34:52.315Z,13.3
2019-03-17T10:35:23.107Z,13.3
2019-03-17T10:35:53.051Z,13.3
2019-03-17T10:36:23.883Z,13.3
2019-03-17T10:36:54.046Z,13.2
2019-03-17T10:37:24.590Z,13.2
2019-03-17T10:37:55.132Z,13.1
2019-03-17T10:38:25.676Z,13.1
2019-03-17T10:39:46.562Z,13.1
2019-03-17T10:40:45.595Z,13.1
2019-03-17T10:41:45.022Z,13.1
2019-03-17T10:42:44.352Z,13.1
2019-03-17T10:43:43.502Z,13.1
2019-03-17T10:44:42.794Z,13.1
2019-03-17T10:45:12.835Z,13.1
2019-03-17T10:45:43.472Z,13.1
2019-03-17T10:46:13.916Z,13.1
2019-03-17T10:46:44.463Z,13.1
2019-03-17T10:47:15.110Z,13.1
2019-03-17T10:47:45.360Z,13.1
2019-03-17T10:48:16.000Z,13.1
2019-03-17T10:49:38.987Z,13.1
2019-03-17T10:50:50.963Z,13.1
2019-03-17T10:51:37.110Z,13.1
2019-03-17T10:52:36.146Z,13.1
2019-03-17T10:53:35.379Z,13.2
2019-03-17T10:54:34.617Z,13.2
2019-03-17T10:55:33.853Z,13.2
2019-03-17T10:56:33.083Z,13.2
2019-03-17T10:57:03.627Z,13.2
2019-03-17T10:57:34.278Z,13.2
2019-03-17T10:58:04.921Z,13.2
2019-03-17T10:59:30.329Z,13.3
2019-03-17T11:00:30.063Z,13.3
2019-03-17T11:01:29.040Z,13.2
2019-03-17T11:02:28.370Z,13.3
2019-03-17T11:03:27.693Z,13.3
2019-03-17T11:04:26.831Z,13.2
2019-03-17T11:05:25.682Z,13.3
2019-03-17T11:06:25.101Z,13.3
2019-03-17T11:07:24.523Z,13.2
2019-03-17T11:07:54.661Z,13.2
2019-03-17T11:08:25.003Z,13.2